createdAt,value
2022-09-13T00:00:12.600Z,8.65
2022-09-13T00:02:41.855Z,8.48
2022-09-13T00:05:10.672Z,8.54
2022-09-13T00:07:38.608Z,8.47
2022-09-13T00:10:07.310Z,8.25
2022-09-13T00:12:35.197Z,8.39
2022-09-13T00:15:03.155Z,8.33
2022-09-13T00:17:31.094Z,8.25
2022-09-13T00:20:00.373Z,8.25
2022-09-13T00:22:28.521Z,8.29
2022-09-13T00:24:56.456Z,8.25
2022-09-13T00:27:24.383Z,8.26
2022-09-13T00:29:52.309Z,8.18
2022-09-13T00:32:20.261Z,8.16
2022-09-13T00:34:48.182Z,8.12
2022-09-13T00:37:17.532Z,8.05
2022-09-13T00:39:49.570Z,8.02
2022-09-13T00:42:18.450Z,8.11
2022-09-13T00:44:58.615Z,8.05
2022-09-13T00:47:30.463Z,8.02
2022-09-13T00:50:01.220Z,8.02
2022-09-13T00:52:32.789Z,8.03
2022-09-13T00:55:04.038Z,8.14
2022-09-13T00:57:33.832Z,8.25
2022-09-13T01:00:09.044Z,8.28
2022-09-13T01:02:37.090Z,8.22
2022-09-13T01:05:05.582Z,8.12
2022-09-13T01:07:35.172Z,8.14
2022-09-13T01:10:06.576Z,8.08
2022-09-13T01:12:37.253Z,8.08
2022-09-13T01:15:07.472Z,8.19
2022-09-13T01:17:35.631Z,8.20
2022-09-13T01:20:04.499Z,8.13
2022-09-13T01:23:03.361Z,8.30
2022-09-13T01:26:07.022Z,8.22
2022-09-13T01:29:00.376Z,8.00
2022-09-13T01:31:34.696Z,7.93
2022-09-13T01:34:13.744Z,7.89
2022-09-13T01:37:11.857Z,7.72
2022-09-13T01:39:55.624Z,7.83
2022-09-13T01:42:30.407Z,7.88
2022-09-13T01:45:06.142Z,7.82
2022-09-13T01:47:39.338Z,7.87
2022-09-13T01:50:16.766Z,7.91
2022-09-13T01:52:50.802Z,7.82
2022-09-13T01:55:24.548Z,7.85
2022-09-13T01:57:55.997Z,7.76
2022-09-13T02:00:24.013Z,7.48
2022-09-13T02:02:56.099Z,7.13
2022-09-13T02:05:31.025Z,7.63
2022-09-13T02:08:01.878Z,7.58
2022-09-13T02:10:33.444Z,7.56
2022-09-13T02:13:01.973Z,7.48
2022-09-13T02:15:33.526Z,7.46
2022-09-13T02:18:06.985Z,7.34
2022-09-13T02:20:37.318Z,7.63
2022-09-13T02:23:08.505Z,7.74
2022-09-13T02:25:38.035Z,7.54
2022-09-13T02:28:10.788Z,7.46
2022-09-13T02:30:41.404Z,7.41
2022-09-13T02:33:13.006Z,7.42
2022-09-13T02:35:46.421Z,7.47
2022-09-13T02:38:18.181Z,7.44
2022-09-13T02:40:49.881Z,7.39
2022-09-13T02:43:22.176Z,7.29
2022-09-13T02:45:54.666Z,7.32
2022-09-13T02:48:38.299Z,7.31
2022-09-13T02:51:08.777Z,6.98
2022-09-13T02:53:40.009Z,7.31
2022-09-13T02:56:21.626Z,7.34
2022-09-13T02:58:54.205Z,7.12
2022-09-13T03:01:22.626Z,7.29
2022-09-13T03:03:53.497Z,7.33
2022-09-13T03:06:25.245Z,7.29
2022-09-13T03:08:53.294Z,7.08
2022-09-13T03:11:30.174Z,7.16
2022-09-13T03:14:17.905Z,7.25
2022-09-13T03:17:00.130Z,7.24
2022-09-13T03:19:41.432Z,7.25
2022-09-13T03:22:32.645Z,7.11
2022-09-13T03:25:06.637Z,7.10
2022-09-13T03:27:37.870Z,7.11
2022-09-13T03:30:07.827Z,7.10
2022-09-13T03:32:40.898Z,7.09
2022-09-13T03:35:16.774Z,7.11
2022-09-13T03:37:49.470Z,7.16
2022-09-13T03:40:23.101Z,7.08
2022-09-13T03:42:54.801Z,7.12
2022-09-13T03:45:26.782Z,7.11
2022-09-13T03:47:55.041Z,7.07
2022-09-13T03:50:25.178Z,7.10
2022-09-13T03:52:56.953Z,7.03
2022-09-13T03:55:25.414Z,6.93
2022-09-13T03:57:53.437Z,6.94
2022-09-13T04:00:21.769Z,6.92
2022-09-13T04:02:49.964Z,6.84
2022-09-13T04:05:17.913Z,6.61
2022-09-13T04:07:47.351Z,6.88
2022-09-13T04:10:15.670Z,6.95
2022-09-13T04:12:43.613Z,7.06
2022-09-13T04:15:11.548Z,7.00
2022-09-13T04:17:39.451Z,6.98
2022-09-13T04:20:08.040Z,6.75
2022-09-13T04:22:35.969Z,6.86
2022-09-13T04:25:06.030Z,6.89
2022-09-13T04:27:35.674Z,7.04
2022-09-13T04:30:04.270Z,7.19
2022-09-13T04:32:33.578Z,7.11
2022-09-13T04:35:01.455Z,7.08
2022-09-13T04:37:29.582Z,6.95
2022-09-13T04:39:58.762Z,7.08
2022-09-13T04:42:28.076Z,7.14
2022-09-13T04:44:55.990Z,7.20
2022-09-13T04:47:24.042Z,7.16
2022-09-13T04:49:51.923Z,7.10
2022-09-13T04:52:19.977Z,7.13
2022-09-13T04:54:48.249Z,7.12
2022-09-13T04:57:16.702Z,7.04
2022-09-13T04:59:46.054Z,7.27
2022-09-13T05:02:14.075Z,7.40
2022-09-13T05:04:42.009Z,7.32
2022-09-13T05:07:09.954Z,7.41
2022-09-13T05:09:38.033Z,8.16
2022-09-13T05:12:08.602Z,8.91
2022-09-13T05:14:36.490Z,9.37
2022-09-13T05:17:05.945Z,9.87
2022-09-13T05:19:33.906Z,10.33
2022-09-13T05:22:01.804Z,10.87
2022-09-13T05:24:29.750Z,11.65
2022-09-13T05:26:57.654Z,11.69
2022-09-13T05:29:25.584Z,13.30
2022-09-13T05:31:53.509Z,13.93
2022-09-13T05:34:22.795Z,14.52
2022-09-13T05:36:54.029Z,14.93
2022-09-13T05:39:48.502Z,15.53
2022-09-13T05:42:10.957Z,15.67
2022-09-13T05:44:38.936Z,15.90
2022-09-13T05:47:07.121Z,16.20
2022-09-13T05:49:45.978Z,15.91
2022-09-13T05:52:27.001Z,15.39
2022-09-13T05:54:54.911Z,16.04
2022-09-13T05:57:22.808Z,15.38
2022-09-13T05:59:50.707Z,15.72
2022-09-13T06:02:18.718Z,15.94
2022-09-13T06:04:48.026Z,15.54
2022-09-13T06:07:21.137Z,15.38
2022-09-13T06:09:51.408Z,15.18
2022-09-13T06:12:19.358Z,14.68
2022-09-13T06:14:47.241Z,14.70
2022-09-13T06:17:15.196Z,14.14
2022-09-13T06:19:43.075Z,13.45
2022-09-13T06:22:12.390Z,13.73
2022-09-13T06:24:40.278Z,13.97
2022-09-13T06:27:08.199Z,14.18
2022-09-13T06:29:36.106Z,14.27
2022-09-13T06:32:04.543Z,13.74
2022-09-13T06:34:32.566Z,13.79
2022-09-13T06:37:00.655Z,13.27
2022-09-13T06:39:32.014Z,13.74
2022-09-13T06:41:59.942Z,13.86
2022-09-13T06:44:27.897Z,13.78
2022-09-13T06:46:55.805Z,14.04
2022-09-13T06:49:23.693Z,13.96
2022-09-13T06:51:51.610Z,14.12
2022-09-13T06:54:19.652Z,13.79
2022-09-13T06:56:48.977Z,13.77
2022-09-13T06:59:16.921Z,13.85
2022-09-13T07:01:45.794Z,13.65
2022-09-13T07:04:15.452Z,13.57
2022-09-13T07:06:45.042Z,14.00
2022-09-13T07:09:14.778Z,14.53
2022-09-13T07:11:43.371Z,15.51
2022-09-13T07:14:14.953Z,15.40
2022-09-13T07:16:43.171Z,15.82
2022-09-13T07:19:15.417Z,15.34
2022-09-13T07:21:43.813Z,15.31
2022-09-13T07:24:12.283Z,15.78
2022-09-13T07:26:43.622Z,16.22
2022-09-13T07:29:17.008Z,16.80
2022-09-13T07:31:46.404Z,16.49
2022-09-13T07:34:15.555Z,16.21
2022-09-13T07:36:43.732Z,16.14
2022-09-13T07:39:15.094Z,16.20
2022-09-13T07:41:46.711Z,16.48
2022-09-13T07:44:16.144Z,16.62
2022-09-13T07:46:44.669Z,16.72
2022-09-13T07:49:14.253Z,16.69
2022-09-13T07:51:43.803Z,16.41
2022-09-13T07:54:14.563Z,16.21
2022-09-13T07:56:46.859Z,16.28
2022-09-13T07:59:30.402Z,16.46
2022-09-13T08:02:24.896Z,16.31
2022-09-13T08:04:52.915Z,16.60
2022-09-13T08:07:20.827Z,16.59
2022-09-13T08:09:49.405Z,16.76
2022-09-13T08:12:17.298Z,16.86
2022-09-13T08:15:08.752Z,17.16
2022-09-13T08:17:36.793Z,17.33
2022-09-13T08:20:06.286Z,17.31
2022-09-13T08:22:35.703Z,17.54
2022-09-13T08:25:10.542Z,17.38
2022-09-13T08:27:38.441Z,17.30
2022-09-13T08:33:35.049Z,17.50
2022-09-13T08:36:04.390Z,17.20
2022-09-13T08:38:32.957Z,17.77
2022-09-13T08:41:04.789Z,17.91
2022-09-13T08:43:46.630Z,18.08
2022-09-13T08:46:22.711Z,17.86
2022-09-13T08:48:52.800Z,18.00
2022-09-13T08:51:30.413Z,18.06
2022-09-13T08:53:59.055Z,18.26
2022-09-13T08:56:33.481Z,18.28
2022-09-13T08:59:31.154Z,18.07
2022-09-13T09:02:13.559Z,18.30
2022-09-13T09:04:47.390Z,18.26
2022-09-13T09:07:18.505Z,18.41
2022-09-13T09:09:50.557Z,18.59
2022-09-13T09:12:25.457Z,19.10
2022-09-13T09:15:00.107Z,18.86
2022-09-13T09:17:33.807Z,18.90
2022-09-13T09:20:07.688Z,19.29
2022-09-13T09:22:37.003Z,19.56
2022-09-13T09:25:06.088Z,19.39
2022-09-13T09:27:34.459Z,19.36
2022-09-13T09:30:02.866Z,18.99
2022-09-13T09:32:58.346Z,20.21
2022-09-13T09:35:51.682Z,19.87
2022-09-13T09:38:35.314Z,19.81
2022-09-13T09:41:06.964Z,20.20
2022-09-13T09:43:37.718Z,19.58
2022-09-13T09:46:07.426Z,20.33
2022-09-13T09:48:42.321Z,20.89
2022-09-13T09:51:11.707Z,20.65
2022-09-13T09:53:43.531Z,20.63
2022-09-13T09:56:22.855Z,21.09
2022-09-13T09:58:51.096Z,21.13
2022-09-13T10:01:23.987Z,21.13
2022-09-13T10:04:03.115Z,20.93
2022-09-13T10:06:31.458Z,20.71
2022-09-13T10:09:01.769Z,20.69
2022-09-13T10:11:48.051Z,21.13
2022-09-13T10:14:39.287Z,21.52
2022-09-13T10:17:17.050Z,21.24
2022-09-13T10:19:55.294Z,21.42
2022-09-13T10:22:23.686Z,21.58
2022-09-13T10:24:51.825Z,21.24
2022-09-13T10:27:33.831Z,21.22
2022-09-13T10:30:04.145Z,21.68
2022-09-13T10:32:32.456Z,21.66
2022-09-13T10:35:06.461Z,21.44
2022-09-13T10:37:36.342Z,21.87
2022-09-13T10:40:08.133Z,22.10
2022-09-13T10:42:36.502Z,22.42
2022-09-13T10:45:06.299Z,21.98
2022-09-13T10:47:36.103Z,21.22
2022-09-13T10:50:20.795Z,21.98
2022-09-13T10:52:50.043Z,21.63
2022-09-13T10:55:31.135Z,21.40
2022-09-13T10:58:14.989Z,21.85
2022-09-13T11:01:02.717Z,21.54
2022-09-13T11:03:40.087Z,21.90
2022-09-13T11:06:14.501Z,21.90
2022-09-13T11:08:51.464Z,22.02
2022-09-13T11:11:23.621Z,22.56
2022-09-13T11:14:01.882Z,22.62
2022-09-13T11:16:39.223Z,21.91
2022-09-13T11:19:31.065Z,22.49
2022-09-13T11:22:15.306Z,22.58
2022-09-13T11:24:57.007Z,22.58
2022-09-13T11:27:32.441Z,23.06
2022-09-13T11:30:11.153Z,23.57
2022-09-13T11:32:54.122Z,23.60
2022-09-13T11:35:50.884Z,23.89
2022-09-13T11:38:45.046Z,23.87
2022-09-13T11:41:22.921Z,23.61
2022-09-13T11:44:03.136Z,24.04
2022-09-13T11:46:39.526Z,24.35
2022-09-13T11:49:37.618Z,24.66
2022-09-13T11:52:13.124Z,24.78
2022-09-13T11:54:57.087Z,24.03
2022-09-13T11:57:28.179Z,24.63
2022-09-13T11:59:58.890Z,24.40
2022-09-13T12:02:30.736Z,24.16
2022-09-13T12:07:52.609Z,24.77
2022-09-13T12:10:31.714Z,25.03
2022-09-13T12:13:01.672Z,24.90
2022-09-13T12:15:35.733Z,24.89
2022-09-13T12:18:08.001Z,25.03
2022-09-13T12:20:39.489Z,25.22
2022-09-13T12:23:13.513Z,25.28
2022-09-13T12:25:48.617Z,25.56
2022-09-13T12:28:20.989Z,25.08
2022-09-13T12:30:53.413Z,25.19
2022-09-13T12:33:21.443Z,25.36
2022-09-13T12:36:14.401Z,25.30
2022-09-13T12:39:15.144Z,25.18
2022-09-13T12:41:53.392Z,25.09
2022-09-13T12:44:39.781Z,24.68
2022-09-13T12:47:21.278Z,24.89
2022-09-13T12:53:13.483Z,25.08
2022-09-13T12:56:03.664Z,25.23
2022-09-13T12:58:46.182Z,25.17
2022-09-13T13:01:17.587Z,25.02
2022-09-13T13:03:51.104Z,25.07
2022-09-13T13:06:27.226Z,24.94
2022-09-13T13:08:57.447Z,25.14
2022-09-13T13:11:28.234Z,24.85
2022-09-13T13:14:00.759Z,24.91
2022-09-13T13:16:31.670Z,24.62
2022-09-13T13:19:00.774Z,24.40
2022-09-13T13:21:37.749Z,24.24
2022-09-13T13:24:54.596Z,23.97
2022-09-13T13:27:39.708Z,23.78
2022-09-13T13:30:44.285Z,23.77
2022-09-13T13:33:22.250Z,23.91
2022-09-13T13:35:51.169Z,24.00
2022-09-13T13:38:48.167Z,23.56
2022-09-13T13:41:39.868Z,23.56
2022-09-13T13:44:44.845Z,23.57
2022-09-13T13:48:05.114Z,23.37
2022-09-13T13:50:37.580Z,23.20
2022-09-13T13:53:22.828Z,23.42
2022-09-13T13:56:08.492Z,23.49
2022-09-13T13:58:46.426Z,23.97
2022-09-13T14:01:19.388Z,23.89
2022-09-13T14:04:18.797Z,24.19
2022-09-13T14:06:52.250Z,24.43
2022-09-13T14:09:33.326Z,24.25
2022-09-13T14:12:15.144Z,23.91
2022-09-13T14:14:52.766Z,23.61
2022-09-13T14:17:37.078Z,23.50
2022-09-13T14:20:07.232Z,23.48
2022-09-13T14:22:36.633Z,23.15
2022-09-13T14:25:15.878Z,22.94
2022-09-13T14:27:44.903Z,22.89
2022-09-13T14:30:20.405Z,22.90
2022-09-13T14:32:50.286Z,22.73
2022-09-13T14:35:28.388Z,22.67
2022-09-13T14:38:00.699Z,22.48
2022-09-13T14:40:29.207Z,22.30
2022-09-13T14:42:57.255Z,22.22
2022-09-13T14:45:28.706Z,21.95
2022-09-13T14:47:58.721Z,21.92
2022-09-13T14:50:28.391Z,22.01
2022-09-13T14:52:59.397Z,21.98
2022-09-13T14:55:29.308Z,21.92
2022-09-13T14:58:02.569Z,21.75
2022-09-13T15:00:32.002Z,21.76
2022-09-13T15:03:02.500Z,21.45
2022-09-13T15:05:33.239Z,21.54
2022-09-13T15:08:27.400Z,21.57
2022-09-13T15:10:58.285Z,21.66
2022-09-13T15:13:26.484Z,21.61
2022-09-13T15:15:54.906Z,21.51
2022-09-13T15:18:27.336Z,21.72
2022-09-13T15:20:56.855Z,21.68
2022-09-13T15:23:29.240Z,21.66
2022-09-13T15:25:59.739Z,21.84
2022-09-13T15:28:29.218Z,21.70
2022-09-13T15:30:58.502Z,21.69
2022-09-13T15:33:31.317Z,21.74
2022-09-13T15:36:28.566Z,21.77
2022-09-13T15:39:02.984Z,21.40
2022-09-13T15:41:33.064Z,21.27
2022-09-13T15:44:01.706Z,20.85
2022-09-13T15:46:29.904Z,21.05
2022-09-13T15:48:59.970Z,21.02
2022-09-13T15:51:28.429Z,21.18
2022-09-13T15:53:56.355Z,21.20
2022-09-13T15:56:33.341Z,21.13
2022-09-13T15:59:01.430Z,20.97
2022-09-13T16:01:29.437Z,20.75
2022-09-13T16:03:57.729Z,20.65
2022-09-13T16:06:26.968Z,20.54
2022-09-13T16:08:54.858Z,20.41
2022-09-13T16:11:22.800Z,20.60
2022-09-13T16:13:52.088Z,20.55
2022-09-13T16:16:20.355Z,20.35
2022-09-13T16:18:48.377Z,20.47
2022-09-13T16:21:16.434Z,20.29
2022-09-13T16:23:44.357Z,20.60
2022-09-13T16:26:12.275Z,20.59
2022-09-13T16:28:40.274Z,20.40
2022-09-13T16:31:09.609Z,20.05
2022-09-13T16:33:37.540Z,20.06
2022-09-13T16:36:07.917Z,19.83
2022-09-13T16:38:35.818Z,19.56
2022-09-13T16:41:05.712Z,19.67
2022-09-13T16:43:34.114Z,19.52
2022-09-13T16:46:07.776Z,19.75
2022-09-13T16:48:37.498Z,19.43
2022-09-13T16:51:06.726Z,19.18
2022-09-13T16:53:35.310Z,18.95
2022-09-13T16:56:07.217Z,19.10
2022-09-13T16:58:37.607Z,19.20
2022-09-13T17:01:06.214Z,19.03
2022-09-13T17:03:36.314Z,18.97
2022-09-13T17:06:07.737Z,18.70
2022-09-13T17:08:37.162Z,18.71
2022-09-13T17:11:06.601Z,18.53
2022-09-13T17:13:34.854Z,18.41
2022-09-13T17:16:03.285Z,18.37
2022-09-13T17:18:31.262Z,18.34
2022-09-13T17:21:00.982Z,18.34
2022-09-13T17:23:30.270Z,18.28
2022-09-13T17:25:58.237Z,18.23
2022-09-13T17:28:26.137Z,18.11
2022-09-13T17:30:54.103Z,18.09
2022-09-13T17:33:22.035Z,18.07
2022-09-13T17:35:59.541Z,18.03
2022-09-13T17:38:27.425Z,18.09
2022-09-13T17:41:04.792Z,18.05
2022-09-13T17:43:32.701Z,17.96
2022-09-13T17:46:05.566Z,18.00
2022-09-13T17:48:33.822Z,17.92
2022-09-13T17:51:03.888Z,17.85
2022-09-13T17:53:31.976Z,17.93
2022-09-13T17:55:59.881Z,17.85
2022-09-13T17:58:29.304Z,17.68
2022-09-13T18:01:04.211Z,17.69
2022-09-13T18:03:32.142Z,17.70
2022-09-13T18:06:01.528Z,17.76
2022-09-13T18:08:31.602Z,17.75
2022-09-13T18:11:13.225Z,17.62
2022-09-13T18:13:44.138Z,17.57
2022-09-13T18:16:20.097Z,17.51
2022-09-13T18:18:49.816Z,17.48
2022-09-13T18:21:19.534Z,17.50
2022-09-13T18:23:48.328Z,17.38
2022-09-13T18:26:17.481Z,17.31
2022-09-13T18:28:48.083Z,17.37
2022-09-13T18:31:17.966Z,17.32
2022-09-13T18:33:46.733Z,17.36
2022-09-13T18:36:16.377Z,17.52
2022-09-13T18:38:46.123Z,17.45
2022-09-13T18:41:15.956Z,17.37
2022-09-13T18:43:45.067Z,17.17
2022-09-13T18:46:16.148Z,17.20
2022-09-13T18:48:45.706Z,17.04
2022-09-13T18:51:15.178Z,17.14
2022-09-13T18:53:43.538Z,17.41
2022-09-13T18:56:13.800Z,17.35
2022-09-13T18:58:43.041Z,17.41
2022-09-13T19:01:12.948Z,17.44
2022-09-13T19:03:48.382Z,17.40
2022-09-13T19:06:18.161Z,17.26
2022-09-13T19:08:46.958Z,17.17
2022-09-13T19:11:35.360Z,17.10
2022-09-13T19:14:03.886Z,16.90
2022-09-13T19:16:31.913Z,16.65
2022-09-13T19:19:01.266Z,16.87
2022-09-13T19:21:31.100Z,16.78
2022-09-13T19:24:02.350Z,16.79
2022-09-13T19:26:35.402Z,16.59
2022-09-13T19:29:06.188Z,16.50
2022-09-13T19:31:35.435Z,16.41
2022-09-13T19:34:06.314Z,16.38
2022-09-13T19:36:35.645Z,16.02
2022-09-13T19:39:04.990Z,16.30
2022-09-13T19:41:33.631Z,16.21
2022-09-13T19:44:02.820Z,16.14
2022-09-13T19:46:32.956Z,16.24
2022-09-13T19:49:02.219Z,16.19
2022-09-13T19:51:33.117Z,16.31
2022-09-13T19:54:01.930Z,16.32
2022-09-13T19:56:32.581Z,16.21
2022-09-13T19:59:00.907Z,15.79
2022-09-13T20:01:30.417Z,16.27
2022-09-13T20:03:59.696Z,16.38
2022-09-13T20:06:28.791Z,16.34
2022-09-13T20:09:02.852Z,16.20
2022-09-13T20:11:31.601Z,16.08
2022-09-13T20:14:00.380Z,16.53
2022-09-13T20:16:31.155Z,16.43
2022-09-13T20:18:59.677Z,16.46
2022-09-13T20:21:28.657Z,16.39
2022-09-13T20:23:58.993Z,16.34
2022-09-13T20:26:28.890Z,16.31
2022-09-13T20:28:58.082Z,16.27
2022-09-13T20:31:26.246Z,15.85
2022-09-13T20:33:57.757Z,16.18
2022-09-13T20:36:26.762Z,16.10
2022-09-13T20:39:02.393Z,15.93
2022-09-13T20:41:32.661Z,15.91
2022-09-13T20:44:01.399Z,15.88
2022-09-13T20:46:31.339Z,15.77
2022-09-13T20:48:59.513Z,15.75
2022-09-13T20:51:29.649Z,15.87
2022-09-13T20:54:00.604Z,15.75
2022-09-13T20:56:34.479Z,15.78
2022-09-13T20:59:02.989Z,15.59
2022-09-13T21:01:32.355Z,15.62
2022-09-13T21:04:00.891Z,15.55
2022-09-13T21:06:30.623Z,15.44
2022-09-13T21:09:00.086Z,15.25
2022-09-13T21:11:30.407Z,15.29
2022-09-13T21:14:02.784Z,15.22
2022-09-13T21:16:33.232Z,15.23
2022-09-13T21:19:01.849Z,15.29
2022-09-13T21:21:31.605Z,15.30
2022-09-13T21:24:02.188Z,15.22
2022-09-13T21:26:30.332Z,15.18
2022-09-13T21:29:00.851Z,15.28
2022-09-13T21:31:30.135Z,15.40
2022-09-13T21:33:59.216Z,15.42
2022-09-13T21:36:27.999Z,15.49
2022-09-13T21:38:56.699Z,15.54
2022-09-13T21:41:26.495Z,14.98
2022-09-13T21:43:54.933Z,15.54
2022-09-13T21:46:25.262Z,15.34
2022-09-13T21:48:55.465Z,14.92
2022-09-13T21:51:25.175Z,15.44
2022-09-13T21:53:58.523Z,15.52
2022-09-13T21:56:28.159Z,15.62
2022-09-13T21:58:58.585Z,15.54
2022-09-13T22:01:30.038Z,15.55
2022-09-13T22:03:58.788Z,15.40
2022-09-13T22:06:30.296Z,15.50
2022-09-13T22:09:02.297Z,15.43
2022-09-13T22:11:32.090Z,15.41
2022-09-13T22:14:02.056Z,15.43
2022-09-13T22:16:33.712Z,15.32
2022-09-13T22:19:08.742Z,15.65
2022-09-13T22:21:39.499Z,15.57
2022-09-13T22:24:08.459Z,15.68
2022-09-13T22:26:38.188Z,15.88
2022-09-13T22:29:07.275Z,15.66
2022-09-13T22:31:38.656Z,15.58
2022-09-13T22:34:08.239Z,15.60
2022-09-13T22:36:36.205Z,15.46
2022-09-13T22:39:04.191Z,15.43
2022-09-13T22:41:33.651Z,15.41
2022-09-13T22:44:02.588Z,15.41
2022-09-13T22:46:32.618Z,15.29
2022-09-13T22:49:02.584Z,15.48
2022-09-13T22:51:31.025Z,15.31
2022-09-13T22:54:01.371Z,15.38
2022-09-13T22:56:34.529Z,15.26
2022-09-13T22:59:03.916Z,15.19
2022-09-13T23:01:32.205Z,15.40
2022-09-13T23:04:02.529Z,15.31
2022-09-13T23:06:31.750Z,15.34
2022-09-13T23:09:01.462Z,15.35
2022-09-13T23:11:30.461Z,15.59
2022-09-13T23:14:00.901Z,15.66
2022-09-13T23:16:31.359Z,15.33
2022-09-13T23:19:01.265Z,15.35
2022-09-13T23:21:31.039Z,15.34
2022-09-13T23:23:59.754Z,15.41
2022-09-13T23:26:29.155Z,15.35
2022-09-13T23:28:58.770Z,15.19
2022-09-13T23:31:28.116Z,15.08
2022-09-13T23:33:57.517Z,15.23
2022-09-13T23:36:28.548Z,15.16
2022-09-13T23:38:58.117Z,15.13
2022-09-13T23:41:26.729Z,15.13
2022-09-13T23:43:55.080Z,15.11
2022-09-13T23:46:23.309Z,14.93
2022-09-13T23:48:51.572Z,14.90
2022-09-13T23:51:20.784Z,14.70
2022-09-13T23:53:50.672Z,14.68
2022-09-13T23:56:18.978Z,14.62
2022-09-13T23:58:47.357Z,14.70
